sensor_id;sensor_type;location;lat;lon;timestamp;temperature;humidity
27896;DHT22;15241;48.374;10.876;2023-07-24T00:00:11;21.10;99.90
27896;DHT22;15241;48.374;10.876;2023-07-24T00:05:28;20.90;99.90
27896;DHT22;15241;48.374;10.876;2023-07-24T00:10:46;20.90;99.90
27896;DHT22;15241;48.374;10.876;2023-07-24T00:16:08;20.90;99.90
27896;DHT22;15241;48.374;10.876;2023-07-24T00:21:26;20.90;99.90
27896;DHT22;15241;48.374;10.876;2023-07-24T00:26:43;20.80;99.90
27896;DHT22;15241;48.374;10.876;2023-07-24T00:32:01;20.80;99.90
27896;DHT22;15241;48.374;10.876;2023-07-24T00:37:18;20.80;99.90
27896;DHT22;15241;48.374;10.876;2023-07-24T00:42:36;20.70;99.90
27896;DHT22;15241;48.374;10.876;2023-07-24T00:47:53;20.80;99.90
27896;DHT22;15241;48.374;10.876;2023-07-24T00:53:12;21.00;99.90
27896;DHT22;15241;48.374;10.876;2023-07-24T00:58:31;21.10;99.90
27896;DHT22;15241;48.374;10.876;2023-07-24T01:03:50;21.20;99.90
27896;DHT22;15241;48.374;10.876;2023-07-24T01:09:08;21.20;99.90
27896;DHT22;15241;48.374;10.876;2023-07-24T01:14:29;21.30;99.90
27896;DHT22;15241;48.374;10.876;2023-07-24T01:19:48;21.30;99.90
27896;DHT22;15241;48.374;10.876;2023-07-24T01:25:10;21.30;99.90
27896;DHT22;15241;48.374;10.876;2023-07-24T01:30:28;21.30;99.90
27896;DHT22;15241;48.374;10.876;2023-07-24T01:35:48;21.30;99.90
27896;DHT22;15241;48.374;10.876;2023-07-24T01:41:06;21.30;99.90
27896;DHT22;15241;48.374;10.876;2023-07-24T01:46:23;21.20;99.90
27896;DHT22;15241;48.374;10.876;2023-07-24T01:51:41;21.30;99.90
27896;DHT22;15241;48.374;10.876;2023-07-24T01:56:58;21.10;99.90
27896;DHT22;15241;48.374;10.876;2023-07-24T02:02:16;20.90;99.90
27896;DHT22;15241;48.374;10.876;2023-07-24T02:07:34;20.90;99.90
27896;DHT22;15241;48.374;10.876;2023-07-24T02:12:52;20.90;99.90
27896;DHT22;15241;48.374;10.876;2023-07-24T02:18:10;20.80;99.90
27896;DHT22;15241;48.374;10.876;2023-07-24T02:23:27;20.90;99.90
27896;DHT22;15241;48.374;10.876;2023-07-24T02:28:44;20.80;99.90
27896;DHT22;15241;48.374;10.876;2023-07-24T02:34:02;20.90;99.90
27896;DHT22;15241;48.374;10.876;2023-07-24T02:39:20;20.70;99.90
27896;DHT22;15241;48.374;10.876;2023-07-24T02:44:37;20.20;99.90
27896;DHT22;15241;48.374;10.876;2023-07-24T02:49:55;19.80;99.90
27896;DHT22;15241;48.374;10.876;2023-07-24T02:55:13;19.70;99.90
27896;DHT22;15241;48.374;10.876;2023-07-24T03:00:32;19.70;99.90
27896;DHT22;15241;48.374;10.876;2023-07-24T03:05:50;19.80;99.90
27896;DHT22;15241;48.374;10.876;2023-07-24T03:11:08;19.80;99.90
27896;DHT22;15241;48.374;10.876;2023-07-24T03:16:25;19.80;99.90
27896;DHT22;15241;48.374;10.876;2023-07-24T03:21:43;19.80;99.90
27896;DHT22;15241;48.374;10.876;2023-07-24T03:27:00;19.70;99.90
27896;DHT22;15241;48.374;10.876;2023-07-24T03:32:17;19.80;99.90
27896;DHT22;15241;48.374;10.876;2023-07-24T03:37:35;19.70;99.90
27896;DHT22;15241;48.374;10.876;2023-07-24T03:42:53;19.80;99.90
27896;DHT22;15241;48.374;10.876;2023-07-24T03:48:11;19.70;99.90
27896;DHT22;15241;48.374;10.876;2023-07-24T03:53:29;19.80;99.90
27896;DHT22;15241;48.374;10.876;2023-07-24T03:58:46;19.70;99.90
27896;DHT22;15241;48.374;10.876;2023-07-24T04:04:04;19.50;99.90
27896;DHT22;15241;48.374;10.876;2023-07-24T04:09:22;19.70;99.90
27896;DHT22;15241;48.374;10.876;2023-07-24T04:14:40;19.70;99.90
27896;DHT22;15241;48.374;10.876;2023-07-24T04:19:57;19.80;99.90
27896;DHT22;15241;48.374;10.876;2023-07-24T04:25:16;20.00;99.90
27896;DHT22;15241;48.374;10.876;2023-07-24T04:30:34;20.00;99.90
27896;DHT22;15241;48.374;10.876;2023-07-24T04:35:52;19.70;99.90
27896;DHT22;15241;48.374;10.876;2023-07-24T04:41:09;19.80;99.90
27896;DHT22;15241;48.374;10.876;2023-07-24T04:46:27;19.80;99.90
27896;DHT22;15241;48.374;10.876;2023-07-24T04:51:45;19.70;99.90
27896;DHT22;15241;48.374;10.876;2023-07-24T04:57:03;19.90;99.90
27896;DHT22;15241;48.374;10.876;2023-07-24T05:02:21;19.90;99.90
27896;DHT22;15241;48.374;10.876;2023-07-24T05:07:38;19.70;99.90
27896;DHT22;15241;48.374;10.876;2023-07-24T05:12:56;19.90;99.90
27896;DHT22;15241;48.374;10.876;2023-07-24T05:18:13;19.90;99.90
27896;DHT22;15241;48.374;10.876;2023-07-24T05:23:31;19.80;99.90
27896;DHT22;15241;48.374;10.876;2023-07-24T05:28:48;19.90;99.90
27896;DHT22;15241;48.374;10.876;2023-07-24T05:34:06;19.80;99.90
27896;DHT22;15241;48.374;10.876;2023-07-24T05:39:23;19.80;99.90
27896;DHT22;15241;48.374;10.876;2023-07-24T05:44:41;19.80;99.90
27896;DHT22;15241;48.374;10.876;2023-07-24T05:49:58;19.90;99.90
27896;DHT22;15241;48.374;10.876;2023-07-24T05:55:16;19.90;99.90
27896;DHT22;15241;48.374;10.876;2023-07-24T06:00:34;19.90;99.90
27896;DHT22;15241;48.374;10.876;2023-07-24T06:05:52;20.00;99.90
27896;DHT22;15241;48.374;10.876;2023-07-24T06:11:10;20.20;99.90
27896;DHT22;15241;48.374;10.876;2023-07-24T06:16:27;20.30;99.90
27896;DHT22;15241;48.374;10.876;2023-07-24T06:21:44;20.70;99.90
27896;DHT22;15241;48.374;10.876;2023-07-24T06:27:02;20.90;99.90
27896;DHT22;15241;48.374;10.876;2023-07-24T06:32:19;21.00;99.90
27896;DHT22;15241;48.374;10.876;2023-07-24T06:37:36;20.90;99.90
27896;DHT22;15241;48.374;10.876;2023-07-24T06:42:54;20.70;99.90
27896;DHT22;15241;48.374;10.876;2023-07-24T06:48:12;20.40;99.90
27896;DHT22;15241;48.374;10.876;2023-07-24T06:53:29;20.10;99.90
27896;DHT22;15241;48.374;10.876;2023-07-24T06:58:47;19.80;99.90
27896;DHT22;15241;48.374;10.876;2023-07-24T07:04:05;19.40;99.90
27896;DHT22;15241;48.374;10.876;2023-07-24T07:09:23;19.40;99.90
27896;DHT22;15241;48.374;10.876;2023-07-24T07:14:40;19.20;99.90
27896;DHT22;15241;48.374;10.876;2023-07-24T07:19:58;19.10;99.90
27896;DHT22;15241;48.374;10.876;2023-07-24T07:25:16;19.00;99.90
27896;DHT22;15241;48.374;10.876;2023-07-24T07:30:33;18.90;99.90
27896;DHT22;15241;48.374;10.876;2023-07-24T07:35:51;18.90;99.90
27896;DHT22;15241;48.374;10.876;2023-07-24T07:41:09;18.90;99.90
27896;DHT22;15241;48.374;10.876;2023-07-24T07:46:26;19.00;99.90
27896;DHT22;15241;48.374;10.876;2023-07-24T07:51:43;19.00;99.90
27896;DHT22;15241;48.374;10.876;2023-07-24T07:57:01;18.80;99.90
27896;DHT22;15241;48.374;10.876;2023-07-24T08:02:19;18.80;99.90
27896;DHT22;15241;48.374;10.876;2023-07-24T08:07:37;19.00;99.90
27896;DHT22;15241;48.374;10.876;2023-07-24T08:12:54;19.40;99.90
27896;DHT22;15241;48.374;10.876;2023-07-24T08:18:12;19.70;99.90
27896;DHT22;15241;48.374;10.876;2023-07-24T08:23:29;19.90;99.90
27896;DHT22;15241;48.374;10.876;2023-07-24T08:28:47;20.20;99.90
27896;DHT22;15241;48.374;10.876;2023-07-24T08:34:05;20.20;99.90
27896;DHT22;15241;48.374;10.876;2023-07-24T08:39:23;20.90;99.90
27896;DHT22;15241;48.374;10.876;2023-07-24T08:44:41;21.20;99.90
27896;DHT22;15241;48.374;10.876;2023-07-24T08:49:59;21.60;99.90
27896;DHT22;15241;48.374;10.876;2023-07-24T08:55:17;22.10;99.90
27896;DHT22;15241;48.374;10.876;2023-07-24T09:00:35;22.30;99.90
27896;DHT22;15241;48.374;10.876;2023-07-24T09:05:52;22.30;99.90
27896;DHT22;15241;48.374;10.876;2023-07-24T09:11:12;22.60;99.90
27896;DHT22;15241;48.374;10.876;2023-07-24T09:16:29;22.80;99.90
27896;DHT22;15241;48.374;10.876;2023-07-24T09:21:47;23.10;99.90
27896;DHT22;15241;48.374;10.876;2023-07-24T09:27:07;23.00;99.90
27896;DHT22;15241;48.374;10.876;2023-07-24T09:32:25;23.40;99.90
27896;DHT22;15241;48.374;10.876;2023-07-24T09:37:43;23.70;99.90
27896;DHT22;15241;48.374;10.876;2023-07-24T09:43:00;23.80;99.90
27896;DHT22;15241;48.374;10.876;2023-07-24T09:48:19;23.70;99.90
27896;DHT22;15241;48.374;10.876;2023-07-24T09:53:38;24.60;99.90
27896;DHT22;15241;48.374;10.876;2023-07-24T09:58:57;24.60;99.90
27896;DHT22;15241;48.374;10.876;2023-07-24T10:04:15;24.70;99.90
27896;DHT22;15241;48.374;10.876;2023-07-24T10:09:35;24.80;99.90
27896;DHT22;15241;48.374;10.876;2023-07-24T10:14:52;24.60;99.90
27896;DHT22;15241;48.374;10.876;2023-07-24T10:20:11;24.30;99.90
27896;DHT22;15241;48.374;10.876;2023-07-24T10:25:30;24.10;99.90
27896;DHT22;15241;48.374;10.876;2023-07-24T10:30:54;23.80;99.90
27896;DHT22;15241;48.374;10.876;2023-07-24T10:36:10;24.40;99.90
27896;DHT22;15241;48.374;10.876;2023-07-24T10:41:36;24.70;99.90
27896;DHT22;15241;48.374;10.876;2023-07-24T10:46:54;25.30;99.90
27896;DHT22;15241;48.374;10.876;2023-07-24T10:52:12;25.90;99.90
27896;DHT22;15241;48.374;10.876;2023-07-24T10:57:30;26.30;99.90
27896;DHT22;15241;48.374;10.876;2023-07-24T11:02:48;27.00;99.90
27896;DHT22;15241;48.374;10.876;2023-07-24T11:08:11;27.50;99.90
27896;DHT22;15241;48.374;10.876;2023-07-24T11:13:29;27.40;99.90
27896;DHT22;15241;48.374;10.876;2023-07-24T11:18:48;28.30;99.90
27896;DHT22;15241;48.374;10.876;2023-07-24T11:24:07;29.00;99.90
27896;DHT22;15241;48.374;10.876;2023-07-24T11:29:25;29.60;99.90
27896;DHT22;15241;48.374;10.876;2023-07-24T11:34:43;29.70;99.90
27896;DHT22;15241;48.374;10.876;2023-07-24T11:40:02;29.80;99.90
27896;DHT22;15241;48.374;10.876;2023-07-24T11:45:20;29.50;99.90
27896;DHT22;15241;48.374;10.876;2023-07-24T11:50:43;28.70;99.90
27896;DHT22;15241;48.374;10.876;2023-07-24T11:56:01;28.00;99.90
27896;DHT22;15241;48.374;10.876;2023-07-24T12:01:19;27.00;99.90
27896;DHT22;15241;48.374;10.876;2023-07-24T12:06:36;26.00;99.90
27896;DHT22;15241;48.374;10.876;2023-07-24T12:11:57;25.40;99.90
27896;DHT22;15241;48.374;10.876;2023-07-24T12:17:19;24.60;99.90
27896;DHT22;15241;48.374;10.876;2023-07-24T12:22:36;24.40;99.90
27896;DHT22;15241;48.374;10.876;2023-07-24T12:27:53;24.10;99.90
27896;DHT22;15241;48.374;10.876;2023-07-24T12:33:11;24.00;99.90
27896;DHT22;15241;48.374;10.876;2023-07-24T12:38:28;23.60;99.90
27896;DHT22;15241;48.374;10.876;2023-07-24T12:43:46;23.20;99.90
27896;DHT22;15241;48.374;10.876;2023-07-24T12:49:03;23.00;99.90
27896;DHT22;15241;48.374;10.876;2023-07-24T12:54:20;23.10;99.90
27896;DHT22;15241;48.374;10.876;2023-07-24T12:59:38;23.20;99.90
27896;DHT22;15241;48.374;10.876;2023-07-24T13:04:55;23.10;99.90
27896;DHT22;15241;48.374;10.876;2023-07-24T13:10:13;23.40;99.90
27896;DHT22;15241;48.374;10.876;2023-07-24T13:15:31;23.20;99.90
27896;DHT22;15241;48.374;10.876;2023-07-24T13:20:48;24.10;99.90
27896;DHT22;15241;48.374;10.876;2023-07-24T13:26:06;24.50;99.90
27896;DHT22;15241;48.374;10.876;2023-07-24T13:31:23;25.30;99.90
27896;DHT22;15241;48.374;10.876;2023-07-24T13:36:41;25.80;99.90
27896;DHT22;15241;48.374;10.876;2023-07-24T13:41:59;26.50;99.90
27896;DHT22;15241;48.374;10.876;2023-07-24T13:47:16;27.00;99.90
27896;DHT22;15241;48.374;10.876;2023-07-24T13:52:34;26.70;99.90
27896;DHT22;15241;48.374;10.876;2023-07-24T13:57:52;27.00;99.90
27896;DHT22;15241;48.374;10.876;2023-07-24T14:03:09;27.20;99.90
27896;DHT22;15241;48.374;10.876;2023-07-24T14:08:27;27.30;99.90
27896;DHT22;15241;48.374;10.876;2023-07-24T14:13:45;27.50;99.90
27896;DHT22;15241;48.374;10.876;2023-07-24T14:19:02;27.90;99.90
27896;DHT22;15241;48.374;10.876;2023-07-24T14:24:20;28.20;99.90
27896;DHT22;15241;48.374;10.876;2023-07-24T14:29:37;28.60;99.90
27896;DHT22;15241;48.374;10.876;2023-07-24T14:34:54;28.40;99.90
27896;DHT22;15241;48.374;10.876;2023-07-24T14:40:13;28.70;99.90
27896;DHT22;15241;48.374;10.876;2023-07-24T14:45:31;28.90;99.90
27896;DHT22;15241;48.374;10.876;2023-07-24T14:50:49;28.90;99.90
27896;DHT22;15241;48.374;10.876;2023-07-24T14:56:06;28.50;99.90
27896;DHT22;15241;48.374;10.876;2023-07-24T15:01:24;28.30;99.90
27896;DHT22;15241;48.374;10.876;2023-07-24T15:06:41;28.10;99.90
27896;DHT22;15241;48.374;10.876;2023-07-24T15:11:59;27.90;99.90
27896;DHT22;15241;48.374;10.876;2023-07-24T15:17:16;27.70;99.90
27896;DHT22;15241;48.374;10.876;2023-07-24T15:22:34;27.80;99.90
27896;DHT22;15241;48.374;10.876;2023-07-24T15:27:51;27.60;99.90
27896;DHT22;15241;48.374;10.876;2023-07-24T15:33:09;26.90;99.90
27896;DHT22;15241;48.374;10.876;2023-07-24T15:38:26;26.30;99.90
27896;DHT22;15241;48.374;10.876;2023-07-24T15:43:44;26.10;99.90
27896;DHT22;15241;48.374;10.876;2023-07-24T15:49:01;25.80;99.90
27896;DHT22;15241;48.374;10.876;2023-07-24T15:54:18;25.40;99.90
27896;DHT22;15241;48.374;10.876;2023-07-24T15:59:35;25.10;99.90
27896;DHT22;15241;48.374;10.876;2023-07-24T16:04:53;24.80;99.90
27896;DHT22;15241;48.374;10.876;2023-07-24T16:10:11;24.50;99.90
27896;DHT22;15241;48.374;10.876;2023-07-24T16:15:28;24.10;99.90
27896;DHT22;15241;48.374;10.876;2023-07-24T16:20:46;23.80;99.90
27896;DHT22;15241;48.374;10.876;2023-07-24T16:26:03;23.20;99.90
27896;DHT22;15241;48.374;10.876;2023-07-24T16:31:21;22.90;99.90
27896;DHT22;15241;48.374;10.876;2023-07-24T16:36:38;22.80;99.90
27896;DHT22;15241;48.374;10.876;2023-07-24T16:41:56;22.60;99.90
27896;DHT22;15241;48.374;10.876;2023-07-24T16:47:13;22.60;99.90
27896;DHT22;15241;48.374;10.876;2023-07-24T16:52:31;22.70;99.90
27896;DHT22;15241;48.374;10.876;2023-07-24T16:57:48;22.70;99.90
27896;DHT22;15241;48.374;10.876;2023-07-24T17:03:06;23.10;99.90
27896;DHT22;15241;48.374;10.876;2023-07-24T17:08:24;23.30;99.90
27896;DHT22;15241;48.374;10.876;2023-07-24T17:13:41;23.30;99.90
27896;DHT22;15241;48.374;10.876;2023-07-24T17:18:59;23.40;99.90
27896;DHT22;15241;48.374;10.876;2023-07-24T17:24:16;23.70;99.90
27896;DHT22;15241;48.374;10.876;2023-07-24T17:29:34;23.50;99.90
27896;DHT22;15241;48.374;10.876;2023-07-24T17:34:51;23.10;99.90
27896;DHT22;15241;48.374;10.876;2023-07-24T17:40:10;23.10;99.90
27896;DHT22;15241;48.374;10.876;2023-07-24T17:45:27;22.70;99.90
27896;DHT22;15241;48.374;10.876;2023-07-24T17:50:45;22.60;99.90
27896;DHT22;15241;48.374;10.876;2023-07-24T17:56:04;22.60;99.90
27896;DHT22;15241;48.374;10.876;2023-07-24T18:01:21;22.50;99.90
27896;DHT22;15241;48.374;10.876;2023-07-24T18:06:38;22.30;99.90
27896;DHT22;15241;48.374;10.876;2023-07-24T18:11:56;22.30;99.90
27896;DHT22;15241;48.374;10.876;2023-07-24T18:17:13;22.10;99.90
27896;DHT22;15241;48.374;10.876;2023-07-24T18:22:30;22.10;99.90
27896;DHT22;15241;48.374;10.876;2023-07-24T18:27:49;22.10;99.90
27896;DHT22;15241;48.374;10.876;2023-07-24T18:33:07;22.00;99.90
27896;DHT22;15241;48.374;10.876;2023-07-24T18:38:25;22.00;99.90
27896;DHT22;15241;48.374;10.876;2023-07-24T18:43:43;21.90;99.90
27896;DHT22;15241;48.374;10.876;2023-07-24T18:49:00;21.90;99.90
27896;DHT22;15241;48.374;10.876;2023-07-24T18:54:17;21.80;99.90
27896;DHT22;15241;48.374;10.876;2023-07-24T18:59:35;21.70;99.90
27896;DHT22;15241;48.374;10.876;2023-07-24T19:04:52;21.60;99.90
27896;DHT22;15241;48.374;10.876;2023-07-24T19:10:11;21.40;99.90
27896;DHT22;15241;48.374;10.876;2023-07-24T19:15:28;21.30;99.90
27896;DHT22;15241;48.374;10.876;2023-07-24T19:20:46;21.20;99.90
27896;DHT22;15241;48.374;10.876;2023-07-24T19:26:03;21.20;99.90
27896;DHT22;15241;48.374;10.876;2023-07-24T19:31:21;21.10;99.90
27896;DHT22;15241;48.374;10.876;2023-07-24T19:36:39;21.00;99.90
27896;DHT22;15241;48.374;10.876;2023-07-24T19:41:56;20.80;99.90
27896;DHT22;15241;48.374;10.876;2023-07-24T19:47:13;20.90;99.90
27896;DHT22;15241;48.374;10.876;2023-07-24T19:52:31;20.90;99.90
27896;DHT22;15241;48.374;10.876;2023-07-24T19:57:49;20.80;99.90
27896;DHT22;15241;48.374;10.876;2023-07-24T20:03:06;20.70;99.90
27896;DHT22;15241;48.374;10.876;2023-07-24T20:08:26;20.50;99.90
27896;DHT22;15241;48.374;10.876;2023-07-24T20:13:43;20.50;99.90
27896;DHT22;15241;48.374;10.876;2023-07-24T20:19:01;20.50;99.90
27896;DHT22;15241;48.374;10.876;2023-07-24T20:24:18;20.40;99.90
27896;DHT22;15241;48.374;10.876;2023-07-24T20:29:35;20.30;99.90
27896;DHT22;15241;48.374;10.876;2023-07-24T20:34:53;20.30;99.90
27896;DHT22;15241;48.374;10.876;2023-07-24T20:40:12;20.20;99.90
27896;DHT22;15241;48.374;10.876;2023-07-24T20:45:29;20.20;99.90
27896;DHT22;15241;48.374;10.876;2023-07-24T20:50:47;20.10;99.90
27896;DHT22;15241;48.374;10.876;2023-07-24T20:56:05;20.00;99.90
27896;DHT22;15241;48.374;10.876;2023-07-24T21:01:23;19.90;99.90
27896;DHT22;15241;48.374;10.876;2023-07-24T21:06:40;19.90;99.90
27896;DHT22;15241;48.374;10.876;2023-07-24T21:11:58;19.90;99.90
27896;DHT22;15241;48.374;10.876;2023-07-24T21:17:15;20.00;99.90
27896;DHT22;15241;48.374;10.876;2023-07-24T21:22:33;19.90;99.90
27896;DHT22;15241;48.374;10.876;2023-07-24T21:27:50;19.70;99.90
27896;DHT22;15241;48.374;10.876;2023-07-24T21:33:08;19.80;99.90
27896;DHT22;15241;48.374;10.876;2023-07-24T21:38:25;19.90;99.90
27896;DHT22;15241;48.374;10.876;2023-07-24T21:43:43;19.90;99.90
27896;DHT22;15241;48.374;10.876;2023-07-24T21:49:01;19.90;99.90
27896;DHT22;15241;48.374;10.876;2023-07-24T21:54:18;19.90;99.90
27896;DHT22;15241;48.374;10.876;2023-07-24T21:59:36;19.80;99.90
27896;DHT22;15241;48.374;10.876;2023-07-24T22:04:53;19.70;99.90
27896;DHT22;15241;48.374;10.876;2023-07-24T22:10:11;19.70;99.90
27896;DHT22;15241;48.374;10.876;2023-07-24T22:15:29;19.80;99.90
27896;DHT22;15241;48.374;10.876;2023-07-24T22:20:46;19.80;99.90
27896;DHT22;15241;48.374;10.876;2023-07-24T22:26:04;19.70;99.90
27896;DHT22;15241;48.374;10.876;2023-07-24T22:31:22;19.70;99.90
27896;DHT22;15241;48.374;10.876;2023-07-24T22:36:40;19.80;99.90
27896;DHT22;15241;48.374;10.876;2023-07-24T22:41:57;19.80;99.90
27896;DHT22;15241;48.374;10.876;2023-07-24T22:47:15;19.80;99.90
27896;DHT22;15241;48.374;10.876;2023-07-24T22:52:32;19.70;99.90
27896;DHT22;15241;48.374;10.876;2023-07-24T22:57:50;19.50;99.90
27896;DHT22;15241;48.374;10.876;2023-07-24T23:03:09;19.50;99.90
27896;DHT22;15241;48.374;10.876;2023-07-24T23:08:27;19.50;99.90
27896;DHT22;15241;48.374;10.876;2023-07-24T23:13:46;19.40;99.90
27896;DHT22;15241;48.374;10.876;2023-07-24T23:19:03;19.30;99.90
27896;DHT22;15241;48.374;10.876;2023-07-24T23:24:21;19.20;99.90
27896;DHT22;15241;48.374;10.876;2023-07-24T23:29:38;19.30;99.90
27896;DHT22;15241;48.374;10.876;2023-07-24T23:34:56;19.10;99.90
27896;DHT22;15241;48.374;10.876;2023-07-24T23:40:14;19.20;99.90
27896;DHT22;15241;48.374;10.876;2023-07-24T23:45:32;18.90;99.90
27896;DHT22;15241;48.374;10.876;2023-07-24T23:50:50;19.00;99.90
27896;DHT22;15241;48.374;10.876;2023-07-24T23:56:08;18.90;99.90
